createdAt,value
2024-02-05T00:01:59.340Z,98617.84
2024-02-05T00:04:29.391Z,98610.65
2024-02-05T00:06:58.637Z,98617.57
2024-02-05T00:09:27.951Z,98617.66
2024-02-05T00:11:56.964Z,98610.46
2024-02-05T00:14:25.975Z,98609.48
2024-02-05T00:16:55.558Z,98607.31
2024-02-05T00:19:24.681Z,98606.94
2024-02-05T00:21:53.901Z,98612.54
2024-02-05T00:24:23.023Z,98609.48
2024-02-05T00:26:52.028Z,98610.02
2024-02-05T00:29:21.516Z,98613.88
2024-02-05T00:31:50.833Z,98606.80
2024-02-05T00:34:19.768Z,98605.52
2024-02-05T00:36:48.954Z,98605.30
2024-02-05T00:39:17.924Z,98608.12
2024-02-05T00:41:46.836Z,98607.10
2024-02-05T00:44:16.102Z,98605.83
2024-02-05T00:46:45.250Z,98605.53
2024-02-05T00:49:14.300Z,98598.90
2024-02-05T00:51:43.327Z,98596.36
2024-02-05T00:54:12.217Z,98595.12
2024-02-05T00:56:41.152Z,98592.54
2024-02-05T00:59:10.313Z,98585.19
2024-02-05T01:01:39.267Z,98583.97
2024-02-05T01:04:08.313Z,98588.73
2024-02-05T01:06:37.684Z,98580.70
2024-02-05T01:09:11.367Z,98577.84
2024-02-05T01:11:40.467Z,98579.26
2024-02-05T01:14:09.418Z,98585.79
2024-02-05T01:16:39.273Z,98577.09
2024-02-05T01:19:08.226Z,98570.33
2024-02-05T01:21:37.321Z,98565.61
2024-02-05T01:24:06.901Z,98567.85
2024-02-05T01:26:35.724Z,98568.33
2024-02-05T01:29:08.264Z,98565.91
2024-02-05T01:31:37.832Z,98562.51
2024-02-05T01:34:06.809Z,98552.93
2024-02-05T01:36:35.776Z,98547.86
2024-02-05T01:39:06.189Z,98538.33
2024-02-05T01:41:35.246Z,98537.13
2024-02-05T01:44:04.325Z,98535.86
2024-02-05T01:46:37.317Z,98527.96
2024-02-05T01:49:09.346Z,98527.36
2024-02-05T01:51:44.323Z,98527.71
2024-02-05T01:54:16.614Z,98521.73
2024-02-05T01:56:46.664Z,98516.39
2024-02-05T01:59:16.181Z,98513.25
2024-02-05T02:01:45.571Z,98504.58
2024-02-05T02:04:15.694Z,98505.52
2024-02-05T02:06:45.106Z,98497.33
2024-02-05T02:09:15.521Z,98495.80
2024-02-05T02:11:44.692Z,98492.44
2024-02-05T02:14:14.039Z,98490.38
2024-02-05T02:16:42.887Z,98491.97
2024-02-05T02:19:31.557Z,98490.01
2024-02-05T02:22:15.747Z,98481.40
2024-02-05T02:24:45.426Z,98478.60
2024-02-05T02:27:14.441Z,98481.91
2024-02-05T02:29:44.788Z,98479.23
2024-02-05T02:32:35.523Z,98475.02
2024-02-05T02:35:13.727Z,98476.27
2024-02-05T02:37:50.672Z,98471.80
2024-02-05T02:40:23.267Z,98461.68
2024-02-05T02:43:00.429Z,98454.56
2024-02-05T02:45:29.984Z,98459.23
2024-02-05T02:47:59.175Z,98451.55
2024-02-05T02:50:28.618Z,98454.91
2024-02-05T02:52:57.582Z,98446.88
2024-02-05T02:55:26.521Z,98442.10
2024-02-05T02:57:55.618Z,98435.73
2024-02-05T03:00:24.640Z,98434.14
2024-02-05T03:02:53.623Z,98427.63
2024-02-05T03:05:22.962Z,98425.61
2024-02-05T03:07:51.827Z,98417.38
2024-02-05T03:10:21.071Z,98418.66
2024-02-05T03:12:50.478Z,98418.59
2024-02-05T03:15:21.210Z,98413.81
2024-02-05T03:17:50.167Z,98414.95
2024-02-05T03:20:40.040Z,98412.61
2024-02-05T03:23:12.138Z,98406.41
2024-02-05T03:25:42.888Z,98397.80
2024-02-05T03:28:12.204Z,98395.23
2024-02-05T03:30:42.871Z,98389.65
2024-02-05T03:33:12.020Z,98381.98
2024-02-05T03:35:41.073Z,98379.59
2024-02-05T03:38:12.016Z,98375.33
2024-02-05T03:40:40.927Z,98371.70
2024-02-05T03:43:09.825Z,98362.21
2024-02-05T03:45:38.695Z,98358.05
2024-02-05T03:48:09.179Z,98347.91
2024-02-05T03:50:38.087Z,98337.85
2024-02-05T03:53:07.000Z,98338.13
2024-02-05T03:55:35.850Z,98332.98
2024-02-05T03:58:05.668Z,98326.84
2024-02-05T04:00:34.804Z,98320.44
2024-02-05T04:03:04.402Z,98312.71
2024-02-05T04:05:33.537Z,98305.93
2024-02-05T04:08:02.562Z,98304.48
2024-02-05T04:10:31.581Z,98295.85
2024-02-05T04:13:00.828Z,98292.73
2024-02-05T04:15:29.741Z,98288.88
2024-02-05T04:18:00.390Z,98272.70
2024-02-05T04:20:29.402Z,98266.39
2024-02-05T04:22:58.345Z,98263.23
2024-02-05T04:25:27.384Z,98260.70
2024-02-05T04:27:56.547Z,98262.70
2024-02-05T04:30:30.367Z,98253.23
2024-02-05T04:33:00.445Z,98247.06
2024-02-05T04:35:29.380Z,98243.21
2024-02-05T04:37:58.400Z,98232.58
2024-02-05T04:40:27.566Z,98236.80
2024-02-05T04:42:56.680Z,98228.67
2024-02-05T04:45:25.617Z,98222.75
2024-02-05T04:47:55.112Z,98216.55
2024-02-05T04:50:24.038Z,98210.27
2024-02-05T04:52:52.883Z,98209.59
2024-02-05T04:55:21.965Z,98209.71
2024-02-05T04:57:51.297Z,98203.52
2024-02-05T05:00:23.283Z,98193.63
2024-02-05T05:02:53.262Z,98192.54
2024-02-05T05:05:22.368Z,98199.44
2024-02-05T05:07:51.308Z,98178.43
2024-02-05T05:10:20.268Z,98175.71
2024-02-05T05:12:49.170Z,98173.14
2024-02-05T05:15:18.689Z,98173.77
2024-02-05T05:17:47.767Z,98185.67
2024-02-05T05:20:17.592Z,98175.73
2024-02-05T05:22:46.673Z,98168.80
2024-02-05T05:25:15.698Z,98157.13
2024-02-05T05:27:44.686Z,98151.17
2024-02-05T05:30:13.892Z,98155.89
2024-02-05T05:32:43.414Z,98154.43
2024-02-05T05:35:12.880Z,98161.80
2024-02-05T05:37:45.093Z,98166.19
2024-02-05T05:40:14.112Z,98163.50
2024-02-05T05:42:43.456Z,98165.70
2024-02-05T05:45:12.353Z,98163.02
2024-02-05T05:47:41.432Z,98170.52
2024-02-05T05:50:12.490Z,98167.88
2024-02-05T05:52:41.804Z,98163.95
2024-02-05T05:55:11.866Z,98159.27
2024-02-05T05:57:40.983Z,98163.35
2024-02-05T06:00:10.882Z,98170.63
2024-02-05T06:02:40.028Z,98175.73
2024-02-05T06:05:11.407Z,98174.21
2024-02-05T06:07:42.005Z,98169.01
2024-02-05T06:10:11.603Z,98163.59
2024-02-05T06:12:42.785Z,98165.88
2024-02-05T06:15:14.512Z,98175.17
2024-02-05T06:17:43.732Z,98170.12
2024-02-05T06:20:16.185Z,98167.80
2024-02-05T06:22:47.012Z,98168.12
2024-02-05T06:25:16.057Z,98158.92
2024-02-05T06:27:44.952Z,98168.76
2024-02-05T06:30:14.418Z,98165.52
2024-02-05T06:32:43.633Z,98177.45
2024-02-05T06:35:12.841Z,98180.22
2024-02-05T06:37:42.120Z,98183.23
2024-02-05T06:40:11.594Z,98180.85
2024-02-05T06:42:40.724Z,98184.58
2024-02-05T06:45:11.713Z,98180.45
2024-02-05T06:47:40.972Z,98181.70
2024-02-05T06:50:11.880Z,98181.82
2024-02-05T06:52:40.868Z,98181.42
2024-02-05T06:55:13.444Z,98181.27
2024-02-05T06:57:42.737Z,98180.89
2024-02-05T07:00:13.902Z,98187.45
2024-02-05T07:02:42.903Z,98177.86
2024-02-05T07:05:13.676Z,98177.27
2024-02-05T07:07:42.716Z,98181.73
2024-02-05T07:10:12.137Z,98172.99
2024-02-05T07:12:41.439Z,98186.91
2024-02-05T07:15:11.090Z,98186.73
2024-02-05T07:17:40.849Z,98194.13
2024-02-05T07:20:10.542Z,98194.37
2024-02-05T07:22:39.714Z,98194.95
2024-02-05T07:25:08.872Z,98204.89
2024-02-05T07:27:39.333Z,98205.31
2024-02-05T07:30:10.363Z,98224.27
2024-02-05T07:32:39.583Z,98225.66
2024-02-05T07:35:08.959Z,98229.80
2024-02-05T07:37:39.247Z,98232.98
2024-02-05T07:40:08.964Z,98245.38
2024-02-05T07:42:38.028Z,98253.17
2024-02-05T07:45:07.152Z,98255.22
2024-02-05T07:47:36.119Z,98260.08
2024-02-05T07:50:05.549Z,98265.35
2024-02-05T07:52:34.603Z,98269.27
2024-02-05T07:55:08.155Z,98282.94
2024-02-05T07:57:38.364Z,98301.60
2024-02-05T08:00:08.394Z,98299.62
2024-02-05T08:02:45.826Z,98306.73
2024-02-05T08:05:15.156Z,98299.67
2024-02-05T08:07:45.499Z,98322.21
2024-02-05T08:10:14.472Z,98345.02
2024-02-05T08:12:43.486Z,98362.02
2024-02-05T08:15:12.689Z,98371.02
2024-02-05T08:17:41.654Z,98367.90
2024-02-05T08:20:11.150Z,98358.89
2024-02-05T08:22:40.196Z,98357.05
2024-02-05T08:25:09.644Z,98363.64
2024-02-05T08:27:38.540Z,98369.42
2024-02-05T08:30:09.197Z,98368.02
2024-02-05T08:32:38.253Z,98378.77
2024-02-05T08:35:07.551Z,98392.45
2024-02-05T08:37:36.562Z,98387.39
2024-02-05T08:40:06.246Z,98388.84
2024-02-05T08:42:35.183Z,98386.63
2024-02-05T08:45:05.032Z,98393.98
2024-02-05T08:47:34.482Z,98397.79
2024-02-05T08:50:03.995Z,98401.41
2024-02-05T08:52:33.260Z,98396.95
2024-02-05T08:55:03.449Z,98397.49
2024-02-05T08:57:32.456Z,98412.38
2024-02-05T09:00:01.439Z,98405.67
2024-02-05T09:02:30.644Z,98397.66
2024-02-05T09:04:59.856Z,98390.58
2024-02-05T09:07:30.153Z,98400.05
2024-02-05T09:09:59.676Z,98406.86
2024-02-05T09:12:28.627Z,98411.98
2024-02-05T09:14:57.450Z,98404.19
2024-02-05T09:17:26.350Z,98409.46
2024-02-05T09:19:55.536Z,98410.41
2024-02-05T09:22:24.801Z,98412.90
2024-02-05T09:24:53.731Z,98406.60
2024-02-05T09:27:22.623Z,98411.30
2024-02-05T09:29:51.543Z,98409.30
2024-02-05T09:32:21.111Z,98408.88
2024-02-05T09:34:50.218Z,98414.30
2024-02-05T09:37:19.666Z,98420.22
2024-02-05T09:39:48.611Z,98419.84
2024-02-05T09:42:17.516Z,98416.56
2024-02-05T09:44:47.752Z,98418.17
2024-02-05T09:47:19.863Z,98415.92
2024-02-05T09:49:50.077Z,98416.54
2024-02-05T09:52:19.315Z,98406.98
2024-02-05T09:54:49.394Z,98404.34
2024-02-05T09:57:21.741Z,98407.14
2024-02-05T09:59:50.882Z,98404.61
2024-02-05T10:02:21.459Z,98398.74
2024-02-05T10:04:53.185Z,98394.83
2024-02-05T10:07:25.735Z,98392.17
2024-02-05T10:09:56.803Z,98391.05
2024-02-05T10:12:26.578Z,98391.70
2024-02-05T10:14:55.457Z,98380.47
2024-02-05T10:17:26.655Z,98387.67
2024-02-05T10:19:56.190Z,98383.69
2024-02-05T10:22:25.484Z,98384.61
2024-02-05T10:24:56.381Z,98375.85
2024-02-05T10:27:25.523Z,98375.64
2024-02-05T10:30:03.521Z,98371.11
2024-02-05T10:32:34.627Z,98378.38
2024-02-05T10:35:04.564Z,98370.09
2024-02-05T10:37:33.683Z,98369.60
2024-02-05T10:40:12.311Z,98365.73
2024-02-05T10:42:43.177Z,98365.13
2024-02-05T10:45:13.316Z,98367.48
2024-02-05T10:47:44.356Z,98364.19
2024-02-05T10:50:15.777Z,98359.50
2024-02-05T10:52:44.992Z,98357.55
2024-02-05T10:55:15.080Z,98352.32
2024-02-05T10:57:45.368Z,98354.52
2024-02-05T11:00:16.344Z,98350.27
2024-02-05T11:03:12.559Z,98350.19
2024-02-05T11:05:44.809Z,98353.29
2024-02-05T11:08:18.069Z,98353.39
2024-02-05T11:10:48.174Z,98352.50
2024-02-05T11:13:31.655Z,98349.85
2024-02-05T11:16:03.549Z,98346.67
2024-02-05T11:18:38.418Z,98341.89
2024-02-05T11:21:09.863Z,98335.15
2024-02-05T11:23:40.270Z,98332.07
2024-02-05T11:26:09.347Z,98335.82
2024-02-05T11:28:38.531Z,98333.60
2024-02-05T11:31:10.805Z,98341.09
2024-02-05T11:33:42.231Z,98334.30
2024-02-05T11:36:15.700Z,98344.05
2024-02-05T11:38:44.624Z,98337.32
2024-02-05T11:41:13.829Z,98338.65
2024-02-05T11:43:44.151Z,98349.69
2024-02-05T11:46:16.210Z,98353.07
2024-02-05T11:48:45.610Z,98346.88
2024-02-05T11:51:16.825Z,98343.80
2024-02-05T11:53:48.508Z,98350.67
2024-02-05T11:56:17.493Z,98353.16
2024-02-05T11:58:47.279Z,98351.89
2024-02-05T12:01:17.873Z,98347.70
2024-02-05T12:03:49.774Z,98366.20
2024-02-05T12:06:18.761Z,98359.38
2024-02-05T12:08:48.007Z,98354.96
2024-02-05T12:11:17.522Z,98365.89
2024-02-05T12:13:57.338Z,98364.40
2024-02-05T12:16:28.467Z,98360.05
2024-02-05T12:19:09.129Z,98353.98
2024-02-05T12:21:42.276Z,98353.11
2024-02-05T12:24:11.634Z,98353.42
2024-02-05T12:26:40.786Z,98353.42
2024-02-05T12:29:09.742Z,98352.73
2024-02-05T12:31:39.406Z,98357.25
2024-02-05T12:34:08.723Z,98356.38
2024-02-05T12:36:38.900Z,98359.66
2024-02-05T12:39:09.126Z,98355.95
2024-02-05T12:41:38.693Z,98347.38
2024-02-05T12:44:16.305Z,98347.91
2024-02-05T12:46:52.309Z,98354.47
2024-02-05T12:49:24.073Z,98368.67
2024-02-05T12:51:54.850Z,98364.27
2024-02-05T12:54:24.160Z,98360.55
2024-02-05T12:56:53.196Z,98360.44
2024-02-05T12:59:23.031Z,98364.31
2024-02-05T13:02:00.624Z,98362.33
2024-02-05T13:04:31.866Z,98367.49
2024-02-05T13:07:08.467Z,98367.97
2024-02-05T13:09:41.283Z,98367.84
2024-02-05T13:12:10.535Z,98368.70
2024-02-05T13:14:40.493Z,98365.85
2024-02-05T13:17:09.490Z,98366.81
2024-02-05T13:19:39.002Z,98361.48
2024-02-05T13:22:08.458Z,98365.86
2024-02-05T13:24:37.977Z,98363.59
2024-02-05T13:27:07.028Z,98373.27
2024-02-05T13:29:36.171Z,98371.48
2024-02-05T13:32:05.391Z,98374.17
2024-02-05T13:34:34.909Z,98374.03
2024-02-05T13:37:04.101Z,98378.59
2024-02-05T13:39:33.535Z,98384.80
2024-02-05T13:42:05.480Z,98385.48
2024-02-05T13:44:34.475Z,98382.66
2024-02-05T13:47:05.445Z,98388.36
2024-02-05T13:49:35.426Z,98396.05
2024-02-05T13:52:04.676Z,98397.40
2024-02-05T13:54:33.633Z,98397.23
2024-02-05T13:57:02.532Z,98404.48
2024-02-05T13:59:31.565Z,98407.77
2024-02-05T14:02:00.542Z,98408.93
2024-02-05T14:04:29.963Z,98408.08
2024-02-05T14:06:59.779Z,98413.15
2024-02-05T14:09:29.069Z,98411.69
2024-02-05T14:11:58.103Z,98417.52
2024-02-05T14:14:27.235Z,98426.49
2024-02-05T14:16:56.083Z,98424.77
2024-02-05T14:19:25.296Z,98426.29
2024-02-05T14:21:54.732Z,98435.77
2024-02-05T14:24:24.526Z,98436.31
2024-02-05T14:26:53.736Z,98445.64
2024-02-05T14:29:23.008Z,98439.53
2024-02-05T14:31:52.758Z,98442.39
2024-02-05T14:34:22.769Z,98439.69
2024-02-05T14:36:51.847Z,98443.88
2024-02-05T14:39:20.887Z,98451.73
2024-02-05T14:41:52.397Z,98451.41
2024-02-05T14:44:22.360Z,98457.80
2024-02-05T14:46:51.512Z,98458.55
2024-02-05T14:49:23.288Z,98465.45
2024-02-05T14:51:52.606Z,98464.33
2024-02-05T14:54:21.618Z,98462.06
2024-02-05T14:56:50.604Z,98462.08
2024-02-05T14:59:19.469Z,98461.92
2024-02-05T15:01:49.339Z,98461.11
2024-02-05T15:04:19.297Z,98461.91
2024-02-05T15:06:49.108Z,98462.20
2024-02-05T15:09:18.156Z,98462.64
2024-02-05T15:11:47.198Z,98464.69
2024-02-05T15:14:16.755Z,98460.83
2024-02-05T15:16:45.722Z,98466.70
2024-02-05T15:19:14.908Z,98471.55
2024-02-05T15:21:46.387Z,98469.88
2024-02-05T15:24:16.005Z,98470.27
2024-02-05T15:26:47.835Z,98475.37
2024-02-05T15:29:17.042Z,98475.32
2024-02-05T15:31:46.601Z,98484.90
2024-02-05T15:34:17.300Z,98486.24
2024-02-05T15:36:46.478Z,98494.33
2024-02-05T15:39:16.263Z,98493.05
2024-02-05T15:41:45.291Z,98500.31
2024-02-05T15:44:15.593Z,98494.13
2024-02-05T15:46:46.115Z,98493.79
2024-02-05T15:49:15.229Z,98502.80
2024-02-05T15:51:44.185Z,98504.46
2024-02-05T15:54:13.240Z,98509.80
2024-02-05T15:56:43.946Z,98511.10
2024-02-05T15:59:13.238Z,98518.52
2024-02-05T16:01:47.288Z,98515.68
2024-02-05T16:04:18.199Z,98520.70
2024-02-05T16:06:47.726Z,98524.59
2024-02-05T16:09:16.823Z,98525.98
2024-02-05T16:11:45.879Z,98522.38
2024-02-05T16:14:15.522Z,98525.17
2024-02-05T16:16:44.772Z,98532.06
2024-02-05T16:19:18.618Z,98538.59
2024-02-05T16:21:50.855Z,98532.35
2024-02-05T16:24:20.354Z,98538.05
2024-02-05T16:26:49.413Z,98534.61
2024-02-05T16:29:18.945Z,98541.77
2024-02-05T16:31:47.885Z,98543.13
2024-02-05T16:34:17.193Z,98547.28
2024-02-05T16:36:48.554Z,98543.03
2024-02-05T16:39:17.504Z,98555.03
2024-02-05T16:41:46.510Z,98555.98
2024-02-05T16:44:15.569Z,98565.58
2024-02-05T16:46:44.630Z,98568.70
2024-02-05T16:49:14.530Z,98571.45
2024-02-05T16:51:43.724Z,98568.81
2024-02-05T16:54:12.854Z,98568.28
2024-02-05T16:56:42.022Z,98568.75
2024-02-05T16:59:11.268Z,98570.65
2024-02-05T17:01:40.509Z,98569.89
2024-02-05T17:04:09.781Z,98571.16
2024-02-05T17:06:39.052Z,98567.56
2024-02-05T17:09:08.050Z,98571.98
2024-02-05T17:11:41.019Z,98570.09
2024-02-05T17:14:10.070Z,98564.66
2024-02-05T17:16:45.324Z,98564.80
2024-02-05T17:19:20.489Z,98564.75
2024-02-05T17:21:50.406Z,98559.36
2024-02-05T17:24:19.459Z,98560.64
2024-02-05T17:26:48.930Z,98562.25
2024-02-05T17:29:18.922Z,98558.48
2024-02-05T17:31:47.886Z,98569.73
2024-02-05T17:34:16.823Z,98559.77
2024-02-05T17:36:47.587Z,98561.33
2024-02-05T17:39:17.264Z,98561.91
2024-02-05T17:41:46.419Z,98557.60
2024-02-05T17:44:15.549Z,98556.09
2024-02-05T17:46:49.306Z,98550.79
2024-02-05T17:49:18.429Z,98550.10
2024-02-05T17:51:47.741Z,98548.20
2024-02-05T17:54:18.287Z,98553.20
2024-02-05T17:56:47.271Z,98557.83
2024-02-05T17:59:19.667Z,98557.98
2024-02-05T18:01:48.959Z,98553.98
2024-02-05T18:04:19.217Z,98557.02
2024-02-05T18:06:48.319Z,98555.91
2024-02-05T18:09:19.139Z,98563.55
2024-02-05T18:11:48.273Z,98558.36
2024-02-05T18:14:17.359Z,98556.30
2024-02-05T18:16:46.336Z,98554.83
2024-02-05T18:19:15.628Z,98549.75
2024-02-05T18:21:44.645Z,98553.67
2024-02-05T18:24:13.642Z,98546.00
2024-02-05T18:26:42.599Z,98544.26
2024-02-05T18:29:11.640Z,98543.31
2024-02-05T18:31:41.320Z,98543.73
2024-02-05T18:34:10.443Z,98551.30
2024-02-05T18:36:39.391Z,98549.20
2024-02-05T18:39:08.308Z,98547.34
2024-02-05T18:41:37.397Z,98552.20
2024-02-05T18:44:08.832Z,98550.85
2024-02-05T18:46:38.434Z,98560.11
2024-02-05T18:49:08.895Z,98552.56
2024-02-05T18:51:38.060Z,98544.14
2024-02-05T18:54:07.006Z,98554.60
2024-02-05T18:56:35.965Z,98560.70
2024-02-05T18:59:05.021Z,98552.66
2024-02-05T19:01:34.590Z,98554.70
2024-02-05T19:04:03.953Z,98550.98
2024-02-05T19:06:33.190Z,98550.55
2024-02-05T19:09:02.546Z,98553.14
2024-02-05T19:11:31.684Z,98551.79
2024-02-05T19:14:00.939Z,98554.49
2024-02-05T19:16:30.022Z,98557.73
2024-02-05T19:18:59.890Z,98554.23
2024-02-05T19:21:29.204Z,98562.34
2024-02-05T19:23:58.398Z,98563.20
2024-02-05T19:26:27.480Z,98555.17
2024-02-05T19:28:59.185Z,98556.10
2024-02-05T19:31:28.741Z,98539.27
2024-02-05T19:33:58.189Z,98535.77
2024-02-05T19:36:27.306Z,98529.93
2024-02-05T19:38:56.572Z,98533.49
2024-02-05T19:41:26.072Z,98536.52
2024-02-05T19:43:57.030Z,98537.71
2024-02-05T19:46:27.616Z,98540.79
2024-02-05T19:48:58.595Z,98545.17
2024-02-05T19:51:34.102Z,98544.80
2024-02-05T19:54:05.726Z,98539.47
2024-02-05T19:56:40.441Z,98542.64
2024-02-05T19:59:11.279Z,98541.26
2024-02-05T20:01:45.986Z,98533.60
2024-02-05T20:04:15.618Z,98537.54
2024-02-05T20:06:44.891Z,98534.23
2024-02-05T20:09:14.118Z,98526.31
2024-02-05T20:11:43.415Z,98529.92
2024-02-05T20:14:12.906Z,98532.97
2024-02-05T20:16:42.180Z,98522.62
2024-02-05T20:19:11.252Z,98520.56
2024-02-05T20:21:40.384Z,98523.42
2024-02-05T20:24:09.809Z,98520.50
2024-02-05T20:26:38.777Z,98530.05
2024-02-05T20:29:07.852Z,98527.79
2024-02-05T20:31:37.032Z,98525.96
2024-02-05T20:34:06.409Z,98528.98
2024-02-05T20:36:35.817Z,98524.73
2024-02-05T20:39:05.462Z,98532.16
2024-02-05T20:41:35.893Z,98525.52
2024-02-05T20:44:04.862Z,98522.02
2024-02-05T20:46:34.078Z,98522.08
2024-02-05T20:49:03.333Z,98522.45
2024-02-05T20:51:33.300Z,98527.05
2024-02-05T20:54:02.467Z,98533.52
2024-02-05T20:56:32.616Z,98533.33
2024-02-05T20:59:01.800Z,98528.90
2024-02-05T21:01:31.941Z,98527.27
2024-02-05T21:04:01.652Z,98535.38
2024-02-05T21:06:30.784Z,98525.89
2024-02-05T21:09:00.016Z,98531.28
2024-02-05T21:11:29.125Z,98540.77
2024-02-05T21:13:58.140Z,98530.86
2024-02-05T21:16:30.457Z,98533.89
2024-02-05T21:18:59.831Z,98533.73
2024-02-05T21:21:29.394Z,98529.11
2024-02-05T21:23:58.421Z,98527.17
2024-02-05T21:26:29.633Z,98525.77
2024-02-05T21:29:01.645Z,98520.00
2024-02-05T21:31:31.045Z,98517.52
2024-02-05T21:34:00.715Z,98515.31
2024-02-05T21:36:29.687Z,98517.80
2024-02-05T21:38:59.090Z,98513.20
2024-02-05T21:41:31.069Z,98506.71
2024-02-05T21:44:00.475Z,98507.48
2024-02-05T21:46:33.362Z,98509.64
2024-02-05T21:49:03.158Z,98508.35
2024-02-05T21:51:35.489Z,98510.20
2024-02-05T21:54:04.679Z,98511.02
2024-02-05T21:56:33.551Z,98514.58
2024-02-05T21:59:03.273Z,98508.88
2024-02-05T22:01:32.345Z,98515.73
2024-02-05T22:04:01.758Z,98516.95
2024-02-05T22:06:30.965Z,98519.17
2024-02-05T22:09:00.849Z,98522.73
2024-02-05T22:11:29.786Z,98527.09
2024-02-05T22:14:01.404Z,98524.45
2024-02-05T22:16:30.623Z,98524.57
2024-02-05T22:18:59.753Z,98529.90
2024-02-05T22:21:29.028Z,98532.38
2024-02-05T22:23:58.130Z,98531.64
2024-02-05T22:26:27.137Z,98535.69
2024-02-05T22:28:56.177Z,98531.91
2024-02-05T22:31:26.484Z,98534.71
2024-02-05T22:33:55.793Z,98537.23
2024-02-05T22:36:26.250Z,98540.10
2024-02-05T22:38:57.448Z,98545.05
2024-02-05T22:41:26.645Z,98545.38
2024-02-05T22:43:55.635Z,98546.58
2024-02-05T22:46:24.793Z,98553.41
2024-02-05T22:48:54.053Z,98555.02
2024-02-05T22:51:22.984Z,98549.86
2024-02-05T22:53:54.693Z,98544.31
2024-02-05T22:56:23.759Z,98540.10
2024-02-05T22:58:53.543Z,98541.18
2024-02-05T23:01:22.963Z,98545.45
2024-02-05T23:03:52.176Z,98541.03
2024-02-05T23:06:22.150Z,98543.94
2024-02-05T23:08:51.347Z,98547.27
2024-02-05T23:11:20.481Z,98544.64
2024-02-05T23:13:49.442Z,98545.18
2024-02-05T23:16:21.169Z,98546.11
2024-02-05T23:18:50.395Z,98539.47
2024-02-05T23:21:21.403Z,98542.48
2024-02-05T23:23:51.126Z,98538.66
2024-02-05T23:26:20.312Z,98531.28
2024-02-05T23:28:49.270Z,98529.48
2024-02-05T23:31:18.223Z,98531.36
2024-02-05T23:33:48.501Z,98526.54
2024-02-05T23:36:17.470Z,98533.05
2024-02-05T23:38:46.349Z,98536.33
2024-02-05T23:41:15.382Z,98532.34
2024-02-05T23:43:44.355Z,98537.09
2024-02-05T23:46:13.332Z,98532.40
2024-02-05T23:48:42.294Z,98536.66
2024-02-05T23:51:11.206Z,98538.98
2024-02-05T23:53:40.097Z,98537.30
2024-02-05T23:56:09.466Z,98537.20
2024-02-05T23:58:38.677Z,98543.02
